Time;durP1;ratioP1;P1;durP2;ratioP2;P2;SDS_P1;SDS_P2;PMS_P1;PMS_P2;Temp;Humidity;BMP_temperature;BMP_pressure;BME280_temperature;BME280_humidity;BME280_pressure;Samples;Min_cycle;Max_cycle;Signal;HPM_P1;HPM_P2
2022/04/20 00:01:30;;;;;;;;;;;10.80;35.70;;;;;;4956855;29;19925;-89
2022/04/20 00:03:55;;;;;;;;;;;10.80;35.90;;;;;;4957306;29;19915;-89
2022/04/20 00:06:21;;;;;;;;;;;10.70;36.10;;;;;;4956571;29;19969;-90
2022/04/20 00:08:49;;;;;;;;;;;10.70;36.40;;;;;;4955621;29;19919;-88
2022/04/20 00:11:15;;;;;;;;;;;10.70;37.00;;;;;;4955896;28;19918;-88
2022/04/20 00:13:40;;;;;;;;;;;10.70;37.40;;;;;;4957503;29;20362;-88
2022/04/20 00:16:06;;;;;;;;;;;10.70;37.00;;;;;;4955611;29;19925;-88
2022/04/20 00:18:31;;;;;;;;;;;10.70;36.90;;;;;;4955843;29;20267;-89
2022/04/20 00:20:56;;;;;;;;;;;10.60;37.00;;;;;;4956998;29;19915;-89
2022/04/20 00:23:22;;;;;;;;;;;10.60;36.90;;;;;;4956555;29;19957;-88
2022/04/20 00:25:47;;;;;;;;;;;10.60;36.80;;;;;;4957064;29;19911;-88
2022/04/20 00:28:13;;;;;;;;;;;10.50;36.70;;;;;;4956432;29;19923;-87
2022/04/20 00:30:38;;;;;;;;;;;10.50;36.80;;;;;;4955784;29;19958;-88
2022/04/20 00:33:04;;;;;;;;;;;10.40;36.80;;;;;;4955073;29;19923;-88
2022/04/20 00:35:30;;;;;;;;;;;10.40;36.70;;;;;;4956216;28;19926;-89
2022/04/20 00:37:55;;;;;;;;;;;10.30;36.70;;;;;;4940235;28;20389;-88
2022/04/20 00:40:22;;;;;;;;;;;10.30;36.80;;;;;;4959824;29;20319;-89
2022/04/20 00:42:49;;;;;;;;;;;10.20;36.90;;;;;;4943884;29;19925;-88
2022/04/20 00:45:15;;;;;;;;;;;10.20;37.00;;;;;;4943833;29;19910;-87
2022/04/20 00:47:44;;;;;;;;;;;10.10;37.20;;;;;;4959318;29;20001;-88
2022/04/20 00:50:11;;;;;;;;;;;10.10;37.30;;;;;;4943225;29;19915;-88
2022/04/20 00:52:36;;;;;;;;;;;10.00;37.30;;;;;;4960943;29;19941;-89
2022/04/20 00:55:03;;;;;;;;;;;10.00;37.40;;;;;;4962947;29;19922;-88
2022/04/20 00:57:28;;;;;;;;;;;9.90;37.50;;;;;;4961612;28;19932;-88
2022/04/20 00:59:59;;;;;;;;;;;9.90;37.50;;;;;;4959145;29;19994;-88
2022/04/20 01:02:26;;;;;;;;;;;9.90;37.70;;;;;;4958157;28;20023;-88
2022/04/20 01:04:51;;;;;;;;;;;9.90;37.80;;;;;;4965080;29;19921;-89
2022/04/20 01:07:17;;;;;;;;;;;9.90;37.80;;;;;;4960007;29;20371;-89
2022/04/20 01:09:43;;;;;;;;;;;9.80;37.80;;;;;;4961207;29;19918;-89
2022/04/20 01:12:09;;;;;;;;;;;9.80;37.90;;;;;;4960250;29;19911;-89
2022/04/20 01:14:35;;;;;;;;;;;9.70;37.90;;;;;;4975669;28;20387;-90
2022/04/20 01:17:00;;;;;;;;;;;9.70;38.00;;;;;;4942476;29;20374;-90
2022/04/20 01:19:38;;;;;;;;;;;9.70;38.10;;;;;;4942525;29;19929;-89
2022/04/20 01:22:04;;;;;;;;;;;9.60;38.20;;;;;;4942157;29;20366;-88
2022/04/20 01:24:30;;;;;;;;;;;9.60;38.50;;;;;;4959367;28;19921;-89
2022/04/20 01:26:55;;;;;;;;;;;9.50;38.70;;;;;;4959399;29;20576;-89
2022/04/20 01:29:21;;;;;;;;;;;9.50;39.00;;;;;;4958364;28;19925;-90
2022/04/20 01:31:47;;;;;;;;;;;9.40;39.10;;;;;;4959234;29;19919;-90
2022/04/20 01:34:12;;;;;;;;;;;9.40;39.20;;;;;;4958776;29;19989;-89
2022/04/20 01:36:37;;;;;;;;;;;9.30;39.20;;;;;;4959075;28;19919;-89
2022/04/20 01:39:03;;;;;;;;;;;9.30;39.30;;;;;;4959124;29;20290;-88
2022/04/20 01:41:28;;;;;;;;;;;9.30;39.50;;;;;;4974403;28;19958;-89
2022/04/20 01:43:54;;;;;;;;;;;9.20;39.80;;;;;;4959215;29;19914;-89
2022/04/20 01:46:23;;;;;;;;;;;9.20;39.70;;;;;;4957757;29;19946;-89
2022/04/20 01:48:49;;;;;;;;;;;9.10;39.60;;;;;;4974713;28;19922;-88
2022/04/20 01:53:59;;;;;;;;;;;9.00;39.60;;;;;;4961332;29;19933;-89
2022/04/20 01:56:24;;;;;;;;;;;8.90;39.60;;;;;;4958915;28;20275;-88
2022/04/20 01:58:50;;;;;;;;;;;8.90;39.70;;;;;;4958712;29;19930;-88
2022/04/20 02:03:59;;;;;;;;;;;8.90;39.80;;;;;;4959713;29;20010;-89
2022/04/20 02:06:25;;;;;;;;;;;8.80;39.90;;;;;;4959757;29;19970;-88
2022/04/20 02:08:50;;;;;;;;;;;8.80;40.00;;;;;;4958780;29;19922;-88
2022/04/20 02:11:16;;;;;;;;;;;8.80;40.00;;;;;;4973464;28;19922;-88
2022/04/20 02:13:41;;;;;;;;;;;8.80;40.10;;;;;;4974018;28;19927;-89
2022/04/20 02:16:07;;;;;;;;;;;8.80;40.20;;;;;;4957389;29;20293;-88
2022/04/20 02:18:32;;;;;;;;;;;8.80;40.30;;;;;;4958810;29;20316;-88
2022/04/20 02:20:58;;;;;;;;;;;8.80;40.40;;;;;;4958711;29;19918;-89
2022/04/20 02:23:23;;;;;;;;;;;8.80;40.40;;;;;;4958364;29;19961;-88
2022/04/20 02:25:49;;;;;;;;;;;8.80;40.60;;;;;;4956545;29;19966;-88
2022/04/20 02:28:14;;;;;;;;;;;8.80;40.90;;;;;;4973482;28;19921;-88
2022/04/20 02:30:40;;;;;;;;;;;8.80;41.00;;;;;;4958437;29;19919;-87
2022/04/20 02:33:05;;;;;;;;;;;8.80;40.90;;;;;;4972980;28;20017;-87
2022/04/20 02:35:35;;;;;;;;;;;8.70;40.90;;;;;;4973579;28;20003;-88
2022/04/20 02:38:01;;;;;;;;;;;8.70;40.90;;;;;;4957606;29;19919;-88
2022/04/20 02:40:26;;;;;;;;;;;8.70;41.30;;;;;;4972962;28;20286;-87
2022/04/20 02:42:52;;;;;;;;;;;8.70;41.70;;;;;;4957906;29;19965;-87
2022/04/20 02:45:19;;;;;;;;;;;8.70;42.10;;;;;;4956930;29;20001;-88
2022/04/20 02:47:45;;;;;;;;;;;8.70;42.10;;;;;;4958152;29;19915;-88
2022/04/20 02:50:10;;;;;;;;;;;8.70;42.00;;;;;;4958154;29;19970;-88
2022/04/20 02:52:35;;;;;;;;;;;8.70;42.20;;;;;;4973600;28;19970;-88
2022/04/20 02:55:01;;;;;;;;;;;8.70;42.10;;;;;;4956915;29;19930;-88
2022/04/20 02:57:27;;;;;;;;;;;8.70;41.90;;;;;;4957932;29;19914;-89
2022/04/20 02:59:52;;;;;;;;;;;8.70;41.80;;;;;;4957515;29;20001;-88
2022/04/20 03:02:18;;;;;;;;;;;8.60;41.80;;;;;;4957560;28;19921;-88
2022/04/20 03:04:43;;;;;;;;;;;8.70;41.80;;;;;;4973872;28;19918;-88
2022/04/20 03:07:09;;;;;;;;;;;8.70;41.90;;;;;;4958174;29;20327;-87
2022/04/20 03:09:34;;;;;;;;;;;8.70;41.80;;;;;;4957005;29;20013;-89
2022/04/20 03:12:00;;;;;;;;;;;8.70;42.00;;;;;;4957437;29;19927;-88
2022/04/20 03:14:26;;;;;;;;;;;8.70;42.00;;;;;;4955614;28;19949;-88
2022/04/20 03:16:51;;;;;;;;;;;8.60;41.90;;;;;;4956640;29;20386;-88
2022/04/20 03:19:17;;;;;;;;;;;8.60;42.10;;;;;;4956916;29;19915;-89
2022/04/20 03:21:43;;;;;;;;;;;8.60;42.10;;;;;;4959472;28;20294;-88
2022/04/20 03:24:09;;;;;;;;;;;8.60;42.00;;;;;;4978073;28;19914;-89
2022/04/20 03:26:34;;;;;;;;;;;8.50;41.90;;;;;;4975525;28;19918;-89
2022/04/20 03:28:59;;;;;;;;;;;8.50;41.90;;;;;;4975822;28;19936;-88
2022/04/20 03:31:25;;;;;;;;;;;8.50;41.90;;;;;;4977019;28;19910;-87
2022/04/20 03:33:50;;;;;;;;;;;8.50;41.90;;;;;;4959172;28;20037;-88
2022/04/20 03:36:16;;;;;;;;;;;8.40;41.90;;;;;;4975916;28;19946;-89
2022/04/20 03:38:42;;;;;;;;;;;8.30;42.00;;;;;;4975490;28;19918;-88
2022/04/20 03:41:07;;;;;;;;;;;8.30;42.00;;;;;;4959890;28;19911;-88
2022/04/20 03:43:33;;;;;;;;;;;8.20;42.00;;;;;;4977975;28;19946;-86
2022/04/20 03:45:58;;;;;;;;;;;8.20;42.10;;;;;;4975239;28;19914;-88
2022/04/20 03:48:24;;;;;;;;;;;8.20;42.10;;;;;;4975480;28;19914;-88
2022/04/20 03:50:50;;;;;;;;;;;8.10;42.20;;;;;;4975155;28;19915;-88
2022/04/20 03:53:16;;;;;;;;;;;8.10;42.30;;;;;;4959457;28;19921;-88
2022/04/20 03:55:41;;;;;;;;;;;8.10;42.50;;;;;;4975296;28;19922;-88
2022/04/20 03:58:07;;;;;;;;;;;8.00;43.00;;;;;;4977180;28;19918;-88
2022/04/20 04:00:32;;;;;;;;;;;8.10;42.90;;;;;;4975538;28;19914;-88
2022/04/20 04:02:58;;;;;;;;;;;8.00;43.10;;;;;;4975564;28;19921;-88
2022/04/20 04:05:23;;;;;;;;;;;8.00;43.10;;;;;;4976513;28;19986;-88
2022/04/20 04:07:49;;;;;;;;;;;7.90;43.10;;;;;;4975615;28;20377;-87
2022/04/20 04:10:14;;;;;;;;;;;8.00;43.30;;;;;;4976656;28;20271;-87
2022/04/20 04:12:40;;;;;;;;;;;7.90;43.30;;;;;;4975635;28;20282;-87
2022/04/20 04:15:06;;;;;;;;;;;7.90;43.20;;;;;;4974905;28;19918;-89
2022/04/20 04:17:32;;;;;;;;;;;7.80;43.20;;;;;;4977045;28;19970;-88
2022/04/20 04:19:57;;;;;;;;;;;7.80;43.10;;;;;;4959197;28;20247;-88
2022/04/20 04:22:23;;;;;;;;;;;7.90;43.10;;;;;;4976775;28;19924;-88
2022/04/20 04:24:49;;;;;;;;;;;7.80;43.50;;;;;;4960185;28;19918;-88
2022/04/20 04:27:15;;;;;;;;;;;7.80;44.40;;;;;;4958702;28;20008;-89
2022/04/20 04:29:40;;;;;;;;;;;7.90;44.90;;;;;;4959050;28;19918;-89
2022/04/20 04:32:06;;;;;;;;;;;7.90;45.50;;;;;;4976714;28;19919;-89
2022/04/20 04:34:32;;;;;;;;;;;8.00;46.00;;;;;;4976409;28;19964;-89
2022/04/20 04:36:58;;;;;;;;;;;8.10;46.30;;;;;;4958408;28;19925;-89
2022/04/20 04:39:23;;;;;;;;;;;8.10;46.20;;;;;;4958878;28;20298;-89
2022/04/20 04:41:49;;;;;;;;;;;8.20;46.50;;;;;;4976250;28;19914;-89
2022/04/20 04:44:19;;;;;;;;;;;8.30;46.70;;;;;;4959182;28;19920;-88
2022/04/20 04:49:28;;;;;;;;;;;8.40;46.20;;;;;;4976857;28;19916;-88
2022/04/20 04:51:55;;;;;;;;;;;8.50;46.00;;;;;;4958517;28;19954;-89
2022/04/20 04:54:21;;;;;;;;;;;8.70;46.20;;;;;;4959138;28;19922;-89
2022/04/20 04:56:46;;;;;;;;;;;8.90;46.50;;;;;;4958879;28;20251;-89
2022/04/20 04:59:12;;;;;;;;;;;9.10;46.90;;;;;;4959637;28;19956;-89
2022/04/20 05:01:39;;;;;;;;;;;9.30;47.20;;;;;;4959370;28;19915;-89
2022/04/20 05:04:05;;;;;;;;;;;9.70;47.50;;;;;;4976861;28;19964;-89
2022/04/20 05:06:30;;;;;;;;;;;10.10;47.80;;;;;;4958672;28;19920;-89
2022/04/20 05:08:56;;;;;;;;;;;10.60;48.00;;;;;;4976089;28;19945;-89
2022/04/20 05:11:21;;;;;;;;;;;11.00;48.20;;;;;;4959168;28;19923;-88
2022/04/20 05:13:47;;;;;;;;;;;11.50;48.20;;;;;;4958150;28;19929;-88
2022/04/20 05:16:12;;;;;;;;;;;12.00;48.10;;;;;;4975720;28;19914;-89
2022/04/20 05:18:38;;;;;;;;;;;12.50;47.90;;;;;;4975780;28;19946;-88
2022/04/20 05:21:03;;;;;;;;;;;13.10;47.80;;;;;;4975849;28;19920;-91
2022/04/20 05:23:29;;;;;;;;;;;13.60;47.50;;;;;;4975609;28;20362;-88
2022/04/20 05:25:54;;;;;;;;;;;14.10;47.30;;;;;;4977756;28;19914;-88
2022/04/20 05:28:20;;;;;;;;;;;14.70;47.00;;;;;;4961199;28;19957;-88
2022/04/20 05:30:45;;;;;;;;;;;15.30;46.60;;;;;;4978670;28;19997;-88
2022/04/20 05:33:12;;;;;;;;;;;15.80;46.00;;;;;;4980274;28;19960;-88
2022/04/20 05:35:37;;;;;;;;;;;16.30;45.30;;;;;;4979966;28;20010;-89
2022/04/20 05:43:31;;;;;;;;;;;18.00;43.40;;;;;;4979803;28;19925;-89
2022/04/20 05:45:56;;;;;;;;;;;18.60;42.40;;;;;;4962120;28;20409;-88
2022/04/20 05:48:22;;;;;;;;;;;19.10;42.00;;;;;;4979462;28;19918;-87
2022/04/20 05:50:47;;;;;;;;;;;19.70;41.30;;;;;;4979063;28;19914;-89
2022/04/20 05:53:13;;;;;;;;;;;20.10;40.20;;;;;;4961457;28;19921;-89
2022/04/20 05:55:39;;;;;;;;;;;20.60;39.10;;;;;;4961512;28;19925;-89
2022/04/20 05:58:04;;;;;;;;;;;21.00;38.50;;;;;;4980068;28;19918;-89
2022/04/20 06:00:31;;;;;;;;;;;21.40;37.00;;;;;;4977816;28;19957;-88
2022/04/20 06:02:56;;;;;;;;;;;21.80;36.20;;;;;;4978908;28;20301;-88
2022/04/20 06:05:22;;;;;;;;;;;22.30;34.90;;;;;;4978722;28;19933;-88
2022/04/20 06:07:47;;;;;;;;;;;22.60;33.50;;;;;;4980805;28;19918;-89
2022/04/20 06:10:13;;;;;;;;;;;22.90;32.60;;;;;;4962760;28;19956;-89
2022/04/20 06:12:39;;;;;;;;;;;23.30;32.60;;;;;;4979632;28;19918;-89
2022/04/20 06:15:06;;;;;;;;;;;23.70;31.50;;;;;;4979501;28;19922;-89
2022/04/20 06:17:31;;;;;;;;;;;24.00;30.10;;;;;;4961690;28;19922;-89
2022/04/20 06:19:57;;;;;;;;;;;24.30;28.80;;;;;;4962948;28;19920;-90
2022/04/20 06:22:23;;;;;;;;;;;24.60;28.40;;;;;;4962282;28;19922;-90
2022/04/20 06:24:48;;;;;;;;;;;24.80;27.90;;;;;;4962836;28;20310;-89
2022/04/20 06:27:14;;;;;;;;;;;25.10;27.80;;;;;;4978120;28;19950;-90
2022/04/20 06:29:39;;;;;;;;;;;25.30;27.10;;;;;;4977986;28;19954;-89
2022/04/20 06:32:05;;;;;;;;;;;25.40;26.30;;;;;;4979099;28;19925;-89
2022/04/20 06:34:31;;;;;;;;;;;25.60;26.10;;;;;;4963941;28;19927;-89
2022/04/20 06:36:56;;;;;;;;;;;25.90;25.80;;;;;;4961711;28;19922;-90
2022/04/20 06:39:22;;;;;;;;;;;26.20;24.70;;;;;;4962060;28;19914;-90
2022/04/20 06:41:48;;;;;;;;;;;26.50;24.50;;;;;;4963061;28;19929;-90
2022/04/20 06:44:14;;;;;;;;;;;26.70;23.60;;;;;;4979781;28;19914;-90
2022/04/20 06:46:39;;;;;;;;;;;26.90;23.30;;;;;;4962072;28;20421;-89
2022/04/20 06:49:06;;;;;;;;;;;27.10;22.90;;;;;;4980266;28;19918;-90
2022/04/20 06:58:31;;;;;;;;;;;27.30;22.70;;;;;;4963902;28;19968;-89
2022/04/20 06:59:45;;;;;;;;;;;27.50;21.60;;;;;;4980153;28;20407;-89
2022/04/20 07:02:12;;;;;;;;;;;27.70;21.60;;;;;;4981576;28;19949;-90
2022/04/20 07:04:38;;;;;;;;;;;27.80;21.70;;;;;;4963452;28;19998;-90
2022/04/20 07:07:03;;;;;;;;;;;27.90;21.20;;;;;;4963511;28;19958;-89
2022/04/20 07:09:29;;;;;;;;;;;28.30;21.30;;;;;;4962671;28;19914;-90
2022/04/20 07:11:54;;;;;;;;;;;28.60;21.20;;;;;;4962486;28;19922;-89
2022/04/20 07:14:20;;;;;;;;;;;28.80;20.80;;;;;;4961877;28;19976;-89
2022/04/20 07:16:45;;;;;;;;;;;29.00;20.90;;;;;;4962038;28;19922;-89
2022/04/20 07:19:11;;;;;;;;;;;29.20;20.30;;;;;;4980019;28;19914;-90
2022/04/20 07:21:36;;;;;;;;;;;29.40;20.50;;;;;;4963113;28;19921;-91
2022/04/20 07:24:02;;;;;;;;;;;29.70;20.20;;;;;;4980096;28;19906;-90
2022/04/20 07:26:27;;;;;;;;;;;29.90;19.90;;;;;;4961297;28;19925;-89
2022/04/20 07:28:55;;;;;;;;;;;29.80;19.00;;;;;;4971955;28;20548;-90
2022/04/20 07:31:20;;;;;;;;;;;29.80;19.20;;;;;;4972435;28;19944;-89
2022/04/20 07:33:46;;;;;;;;;;;29.90;19.30;;;;;;4955217;28;19956;-90
2022/04/20 07:36:11;;;;;;;;;;;30.10;19.10;;;;;;4956860;29;19925;-90
2022/04/20 07:38:38;;;;;;;;;;;30.30;18.90;;;;;;4957432;28;19946;-89
2022/04/20 07:41:04;;;;;;;;;;;30.40;18.60;;;;;;4976771;28;19941;-90
2022/04/20 07:43:29;;;;;;;;;;;30.60;18.60;;;;;;4977581;28;20370;-90
2022/04/20 07:45:55;;;;;;;;;;;30.70;18.60;;;;;;4977630;28;20008;-91
2022/04/20 07:48:21;;;;;;;;;;;31.00;18.20;;;;;;4978140;28;19926;-90
2022/04/20 07:50:46;;;;;;;;;;;31.10;18.30;;;;;;4978102;28;20365;-90
2022/04/20 07:53:12;;;;;;;;;;;31.40;18.40;;;;;;4994219;28;19960;-90
2022/04/20 07:55:38;;;;;;;;;;;31.70;17.70;;;;;;4985109;28;19929;-90
2022/04/20 07:58:04;;;;;;;;;;;31.80;17.70;;;;;;4958782;28;19922;-89
2022/04/20 08:00:30;;;;;;;;;;;32.10;17.70;;;;;;4958635;28;20069;-89
2022/04/20 08:03:08;;;;;;;;;;;32.20;17.70;;;;;;4975833;28;19976;-90
2022/04/20 08:05:33;;;;;;;;;;;32.40;17.50;;;;;;4958309;28;19918;-90
2022/04/20 08:07:59;;;;;;;;;;;32.60;17.10;;;;;;4956597;28;19925;-90
2022/04/20 08:10:24;;;;;;;;;;;32.70;16.70;;;;;;4957786;28;19918;-88
2022/04/20 08:12:52;;;;;;;;;;;32.80;16.60;;;;;;4973744;28;19922;-90
2022/04/20 08:15:18;;;;;;;;;;;32.70;16.40;;;;;;4957417;28;19961;-89
2022/04/20 08:17:44;;;;;;;;;;;32.70;16.80;;;;;;4974775;28;19922;-88
2022/04/20 08:20:09;;;;;;;;;;;32.70;16.80;;;;;;4975689;28;19918;-89
2022/04/20 08:22:39;;;;;;;;;;;32.80;17.20;;;;;;4955199;29;19950;-88
2022/04/20 08:25:05;;;;;;;;;;;32.80;16.60;;;;;;4939081;29;19918;-88
2022/04/20 08:27:31;;;;;;;;;;;32.80;16.30;;;;;;4939004;29;19977;-89
2022/04/20 08:29:57;;;;;;;;;;;32.60;16.30;;;;;;4955612;29;19965;-88
2022/04/20 08:32:23;;;;;;;;;;;32.40;16.50;;;;;;4956722;29;19922;-89
2022/04/20 08:34:48;;;;;;;;;;;32.40;16.70;;;;;;4940325;29;19945;-89
2022/04/20 08:37:14;;;;;;;;;;;32.40;16.90;;;;;;4939572;29;19969;-89
2022/04/20 08:39:40;;;;;;;;;;;32.30;16.70;;;;;;4956176;29;20278;-88
2022/04/20 08:42:07;;;;;;;;;;;32.30;16.80;;;;;;4938840;29;20009;-89
2022/04/20 08:44:34;;;;;;;;;;;32.40;16.80;;;;;;4956675;29;19918;-89
2022/04/20 08:47:01;;;;;;;;;;;32.40;16.70;;;;;;4956411;29;19958;-89
2022/04/20 08:49:26;;;;;;;;;;;32.40;16.60;;;;;;4937734;29;20362;-89
2022/04/20 08:54:37;;;;;;;;;;;32.30;16.80;;;;;;4957456;29;19933;-91
2022/04/20 08:57:15;;;;;;;;;;;32.30;16.60;;;;;;4957259;29;19914;-89
2022/04/20 08:59:42;;;;;;;;;;;32.30;16.90;;;;;;4958690;28;19919;-89
2022/04/20 09:02:09;;;;;;;;;;;32.40;16.60;;;;;;4960685;29;19914;-89
2022/04/20 09:04:34;;;;;;;;;;;32.50;16.60;;;;;;4960634;28;20011;-89
2022/04/20 09:07:00;;;;;;;;;;;32.50;16.90;;;;;;4941719;29;19922;-89
2022/04/20 09:09:29;;;;;;;;;;;32.50;16.50;;;;;;4942280;29;19915;-90
2022/04/20 09:11:59;;;;;;;;;;;32.50;16.50;;;;;;4944710;29;20339;-90
2022/04/20 09:14:25;;;;;;;;;;;32.50;16.60;;;;;;4943297;29;19936;-89
2022/04/20 09:16:53;;;;;;;;;;;32.50;16.40;;;;;;4959704;29;19922;-90
2022/04/20 09:19:22;;;;;;;;;;;32.50;16.60;;;;;;4942689;29;19926;-89
2022/04/20 09:21:48;;;;;;;;;;;32.30;16.30;;;;;;4942992;29;19922;-89
2022/04/20 09:24:13;;;;;;;;;;;31.90;16.40;;;;;;4959088;28;20005;-89
2022/04/20 09:26:51;;;;;;;;;;;31.50;16.70;;;;;;4979075;28;19921;-90
2022/04/20 09:29:17;;;;;;;;;;;31.30;17.00;;;;;;4978969;28;19914;-88
2022/04/20 09:31:47;;;;;;;;;;;31.10;16.80;;;;;;4960726;28;19925;-90
2022/04/20 09:34:33;;;;;;;;;;;30.90;17.20;;;;;;4960241;28;20017;-90
2022/04/20 09:37:10;;;;;;;;;;;30.70;17.20;;;;;;4961391;28;20401;-91
2022/04/20 09:39:38;;;;;;;;;;;30.60;17.40;;;;;;4976584;28;19924;-88
2022/04/20 09:42:05;;;;;;;;;;;30.60;17.50;;;;;;4960163;28;19922;-89
2022/04/20 09:44:31;;;;;;;;;;;30.50;17.30;;;;;;4977700;28;19922;-90
2022/04/20 09:50:11;;;;;;;;;;;30.50;17.10;;;;;;4978949;28;19992;-89
2022/04/20 09:52:41;;;;;;;;;;;30.30;17.10;;;;;;4949246;28;20270;-89
2022/04/20 09:55:08;;;;;;;;;;;30.30;17.10;;;;;;4960640;28;20374;-89
2022/04/20 09:57:34;;;;;;;;;;;30.40;17.30;;;;;;4979882;28;20602;-89
2022/04/20 10:00:01;;;;;;;;;;;30.60;17.10;;;;;;4981156;28;19914;-89
2022/04/20 10:02:28;;;;;;;;;;;30.60;16.90;;;;;;4963046;28;19923;-89
2022/04/20 10:04:55;;;;;;;;;;;30.70;16.90;;;;;;4980990;28;20051;-90
2022/04/20 10:07:20;;;;;;;;;;;30.50;17.10;;;;;;4992091;28;19929;-89
2022/04/20 10:09:46;;;;;;;;;;;30.70;17.00;;;;;;5000350;28;19972;-89
2022/04/20 10:12:14;;;;;;;;;;;30.80;16.80;;;;;;5000157;28;19921;-90
2022/04/20 10:17:26;;;;;;;;;;;30.70;16.50;;;;;;5000471;28;19994;-89
2022/04/20 10:19:52;;;;;;;;;;;30.70;16.60;;;;;;4981328;28;20606;-90
2022/04/20 10:22:18;;;;;;;;;;;30.80;16.50;;;;;;4971315;28;19950;-89
2022/04/20 10:24:45;;;;;;;;;;;31.00;16.50;;;;;;4943022;29;19930;-89
2022/04/20 10:27:16;;;;;;;;;;;31.30;16.30;;;;;;4943931;29;19937;-89
2022/04/20 10:30:02;;;;;;;;;;;31.30;15.80;;;;;;4964889;28;20406;-91
2022/04/20 10:32:30;;;;;;;;;;;31.30;16.00;;;;;;4978954;28;19973;-90
2022/04/20 10:35:00;;;;;;;;;;;31.30;16.20;;;;;;4981049;28;19926;-90
2022/04/20 10:37:28;;;;;;;;;;;31.30;15.80;;;;;;4979772;28;19918;-89
2022/04/20 10:40:11;;;;;;;;;;;31.20;15.80;;;;;;4962153;28;19922;-91
2022/04/20 10:42:37;;;;;;;;;;;31.30;15.90;;;;;;4979195;28;19933;-89
2022/04/20 10:45:04;;;;;;;;;;;31.70;15.60;;;;;;4979690;28;20310;-90
2022/04/20 10:47:40;;;;;;;;;;;31.70;15.70;;;;;;4962450;28;19925;-90
2022/04/20 10:50:16;;;;;;;;;;;31.80;15.50;;;;;;4962069;28;20278;-89
2022/04/20 10:52:46;;;;;;;;;;;31.80;15.10;;;;;;4962982;28;19914;-89
2022/04/20 10:55:11;;;;;;;;;;;31.50;15.10;;;;;;4963513;28;19932;-90
2022/04/20 10:57:38;;;;;;;;;;;31.50;15.20;;;;;;4981136;28;20342;-89
2022/04/20 11:00:24;;;;;;;;;;;31.60;15.10;;;;;;4963007;28;19925;-89
2022/04/20 11:03:10;;;;;;;;;;;31.50;15.20;;;;;;4963116;28;19926;-90
2022/04/20 11:05:53;;;;;;;;;;;31.40;15.40;;;;;;4980896;28;19918;-89
2022/04/20 11:08:20;;;;;;;;;;;31.30;15.70;;;;;;4981912;28;19925;-89
2022/04/20 11:18:38;;;;;;;;;;;31.70;15.90;;;;;;4982233;28;19914;-90
2022/04/20 11:19:20;;;;;;;;;;;32.00;15.00;;;;;;4984834;28;19956;-90
2022/04/20 11:21:53;;;;;;;;;;;31.80;15.00;;;;;;4982176;28;19918;-90
2022/04/20 11:24:25;;;;;;;;;;;31.80;15.20;;;;;;4964879;28;19925;-92
2022/04/20 11:26:54;;;;;;;;;;;31.80;15.20;;;;;;4965918;28;20004;-90
2022/04/20 11:29:30;;;;;;;;;;;32.00;15.10;;;;;;4966996;28;19914;-88
2022/04/20 11:32:00;;;;;;;;;;;31.90;15.20;;;;;;4966533;28;19918;-90
2022/04/20 11:34:27;;;;;;;;;;;32.10;15.40;;;;;;4983225;28;19961;-88
2022/04/20 11:36:54;;;;;;;;;;;32.50;15.40;;;;;;4965127;28;19973;-90
2022/04/20 11:39:20;;;;;;;;;;;32.70;15.30;;;;;;4974520;28;19920;-89
2022/04/20 11:41:50;;;;;;;;;;;32.40;14.90;;;;;;4963655;28;19941;-88
2022/04/20 11:44:23;;;;;;;;;;;32.00;15.00;;;;;;4997995;28;19921;-89
2022/04/20 11:46:49;;;;;;;;;;;32.00;15.10;;;;;;4981239;28;20281;-89
2022/04/20 11:49:15;;;;;;;;;;;32.30;15.20;;;;;;4999760;28;20400;-89
2022/04/20 11:51:45;;;;;;;;;;;32.30;15.00;;;;;;4980913;28;19917;-89
2022/04/20 11:54:16;;;;;;;;;;;32.20;15.30;;;;;;4999844;28;19933;-89
2022/04/20 11:56:42;;;;;;;;;;;31.90;15.60;;;;;;4998955;28;19914;-89
2022/04/20 11:59:08;;;;;;;;;;;31.50;15.40;;;;;;4997705;28;19925;-90
2022/04/20 12:01:38;;;;;;;;;;;31.30;15.60;;;;;;4998205;28;20309;-89
2022/04/20 12:04:33;;;;;;;;;;;31.30;15.60;;;;;;4998121;28;20344;-90
2022/04/20 12:06:59;;;;;;;;;;;31.40;15.90;;;;;;4980524;28;19922;-89
2022/04/20 12:09:26;;;;;;;;;;;31.60;15.60;;;;;;4978097;28;19917;-87
2022/04/20 12:11:52;;;;;;;;;;;31.40;15.90;;;;;;4979539;28;19965;-90
2022/04/20 12:14:19;;;;;;;;;;;31.30;15.90;;;;;;4979687;28;19914;-89
2022/04/20 12:16:45;;;;;;;;;;;31.10;16.00;;;;;;4996358;28;20074;-90
2022/04/20 12:19:11;;;;;;;;;;;31.10;16.10;;;;;;4976972;28;19924;-89
2022/04/20 12:21:41;;;;;;;;;;;31.00;16.00;;;;;;4978090;28;20381;-88
2022/04/20 12:24:08;;;;;;;;;;;30.80;16.30;;;;;;4962135;28;19910;-90
2022/04/20 12:26:33;;;;;;;;;;;30.80;16.40;;;;;;4957865;28;20286;-90
2022/04/20 12:29:00;;;;;;;;;;;31.00;16.40;;;;;;4956648;28;19914;-89
2022/04/20 12:31:26;;;;;;;;;;;30.90;16.40;;;;;;4973790;28;19926;-90
2022/04/20 12:34:02;;;;;;;;;;;31.00;16.60;;;;;;4974197;28;20293;-90
2022/04/20 12:36:27;;;;;;;;;;;30.90;16.70;;;;;;4978381;28;20017;-90
2022/04/20 12:38:53;;;;;;;;;;;30.80;16.70;;;;;;4960943;28;20489;-89
2022/04/20 12:41:53;;;;;;;;;;;30.80;16.60;;;;;;4975855;28;20281;-89
2022/04/20 12:44:35;;;;;;;;;;;30.40;16.70;;;;;;4917292;29;20269;-89
2022/04/20 12:47:31;;;;;;;;;;;30.00;16.90;;;;;;4970602;28;19926;-90
2022/04/20 12:49:59;;;;;;;;;;;29.80;17.30;;;;;;4976920;28;19941;-90
2022/04/20 12:52:25;;;;;;;;;;;30.00;17.30;;;;;;4960201;28;19914;-90
2022/04/20 12:54:55;;;;;;;;;;;29.80;17.40;;;;;;4960381;28;19929;-90
2022/04/20 13:02:58;;;;;;;;;;;29.40;17.60;;;;;;4978136;28;19921;-91
2022/04/20 13:05:24;;;;;;;;;;;29.30;17.70;;;;;;4959999;28;19941;-88
2022/04/20 13:07:49;;;;;;;;;;;29.20;18.20;;;;;;4977520;28;19918;-89
2022/04/20 13:10:15;;;;;;;;;;;28.90;18.10;;;;;;4977268;28;19929;-90
2022/04/20 13:12:50;;;;;;;;;;;28.70;18.30;;;;;;4977876;28;19918;-90
2022/04/20 13:15:16;;;;;;;;;;;28.50;18.70;;;;;;4959740;28;19922;-90
2022/04/20 13:17:42;;;;;;;;;;;28.20;18.70;;;;;;4959884;28;20005;-90
2022/04/20 13:20:07;;;;;;;;;;;28.20;19.10;;;;;;4960039;28;19922;-90
2022/04/20 13:22:33;;;;;;;;;;;28.20;19.00;;;;;;4959953;28;19954;-89
2022/04/20 13:27:55;;;;;;;;;;;28.00;19.10;;;;;;4978366;28;19964;-90
2022/04/20 13:30:36;;;;;;;;;;;27.90;19.30;;;;;;4975850;28;19995;-90
2022/04/20 13:33:03;;;;;;;;;;;27.90;19.50;;;;;;4960758;28;20008;-90
2022/04/20 13:35:29;;;;;;;;;;;27.80;19.50;;;;;;4978936;28;20381;-90
2022/04/20 13:37:54;;;;;;;;;;;27.40;19.80;;;;;;4978552;28;19918;-90
2022/04/20 13:40:20;;;;;;;;;;;27.40;20.00;;;;;;4977454;28;19918;-90
2022/04/20 13:42:46;;;;;;;;;;;27.40;20.00;;;;;;4960301;28;19945;-89
2022/04/20 13:45:11;;;;;;;;;;;27.30;20.00;;;;;;4976814;28;19918;-90
2022/04/20 13:47:37;;;;;;;;;;;27.20;20.00;;;;;;4976862;28;19914;-90
2022/04/20 13:50:03;;;;;;;;;;;27.10;20.00;;;;;;4976886;28;19914;-91
2022/04/20 13:52:29;;;;;;;;;;;26.90;20.40;;;;;;4976702;28;20004;-90
2022/04/20 13:54:54;;;;;;;;;;;26.50;20.30;;;;;;4960813;28;20370;-90
2022/04/20 13:57:20;;;;;;;;;;;26.10;20.60;;;;;;4977539;28;19921;-90
2022/04/20 13:59:47;;;;;;;;;;;25.60;20.80;;;;;;4977293;28;20266;-89
2022/04/20 14:02:13;;;;;;;;;;;25.20;21.30;;;;;;4977315;28;20247;-90
2022/04/20 14:04:39;;;;;;;;;;;24.70;21.60;;;;;;4959590;28;20338;-89
2022/04/20 14:07:05;;;;;;;;;;;24.30;21.50;;;;;;4977828;28;19949;-91
2022/04/20 14:09:30;;;;;;;;;;;23.80;21.90;;;;;;4960236;28;19910;-89
2022/04/20 14:11:56;;;;;;;;;;;23.60;22.70;;;;;;4976032;28;20703;-89
2022/04/20 14:14:22;;;;;;;;;;;23.30;23.20;;;;;;4976487;28;20293;-89
2022/04/20 14:16:50;;;;;;;;;;;23.10;23.50;;;;;;4958455;28;19949;-89
2022/04/20 14:19:16;;;;;;;;;;;22.90;23.70;;;;;;4958834;28;20437;-88
2022/04/20 14:21:41;;;;;;;;;;;22.80;24.10;;;;;;4976138;28;19969;-89
2022/04/20 14:24:07;;;;;;;;;;;22.70;24.50;;;;;;4960145;28;19934;-89
2022/04/20 14:32:14;;;;;;;;;;;22.30;24.70;;;;;;4957415;29;19974;-89
2022/04/20 14:34:44;;;;;;;;;;;22.30;24.70;;;;;;4957051;29;19950;-89
2022/04/20 14:37:10;;;;;;;;;;;22.30;24.90;;;;;;4956566;29;19918;-89
2022/04/20 14:39:36;;;;;;;;;;;22.30;25.00;;;;;;4939679;29;20260;-89
2022/04/20 14:42:02;;;;;;;;;;;22.20;24.90;;;;;;4940952;29;19961;-90
2022/04/20 14:44:30;;;;;;;;;;;22.10;25.30;;;;;;4957412;29;19910;-88
2022/04/20 14:46:56;;;;;;;;;;;22.10;25.30;;;;;;4957679;29;19919;-90
2022/04/20 14:49:22;;;;;;;;;;;22.10;25.30;;;;;;4939128;29;19914;-89
2022/04/20 14:51:47;;;;;;;;;;;22.10;25.30;;;;;;4940337;29;19973;-89
2022/04/20 14:54:16;;;;;;;;;;;22.10;25.10;;;;;;4940150;29;19929;-89
2022/04/20 14:56:41;;;;;;;;;;;22.00;25.50;;;;;;4957227;28;20401;-89
2022/04/20 14:59:07;;;;;;;;;;;21.90;25.70;;;;;;4939464;29;19910;-90
2022/04/20 15:01:33;;;;;;;;;;;21.80;25.90;;;;;;4938693;29;19922;-90
2022/04/20 15:03:59;;;;;;;;;;;21.80;25.90;;;;;;4939873;29;19969;-89
2022/04/20 15:06:25;;;;;;;;;;;21.80;25.90;;;;;;4939169;29;20393;-89
2022/04/20 15:08:51;;;;;;;;;;;21.90;26.00;;;;;;4957341;29;19914;-90